CheckWX is a tool to help pilots better visualize weather data.  It is not intended as a substitute for an official pre-flight weather briefing.

12:13:46 UTC

ETHS METAR
Fassberg Airport
Germany
Current

54 mins ago

ETHS 241120Z 19007KT 9999 FEW050 BKN360 28/09 Q1022 BLU+BLU+
Observed
Jun-24 @ 11:20 UTC
Wind
  • 190° at 7 KTS
Visibility
10,000+ meters
Flight Rules
VFR
Cloud Levels
  • Few at 5,000' AGL
  • Broken at 36,000' AGL
Temperature
28°C / 82°F
Dewpoint
C / 48°F
Humidity
30%
Altimeter
30.18" Hg
Pressure
1021.92 hPa
Previous

2 hours ago

ETHS 241020Z 14007G17KT 9999 FEW050 BKN360 26/10 Q1023 BLU+BLU+
Observed
Jun-24 @ 10:20 UTC
Wind
  • 140° at 7 KTS
  • Gusting to 17 KTS
Visibility
10,000+ meters
Flight Rules
VFR
Cloud Levels
  • Few at 5,000' AGL
  • Broken at 36,000' AGL
Temperature
26°C / 79°F
Dewpoint
10°C / 50°F
Humidity
37%
Altimeter
30.21" Hg
Pressure
1022.92 hPa
Previous

3 hours ago

ETHS 240920Z 10009KT 9999 BKN360 25/12 Q1023 BLU+BLU+
Observed
Jun-24 @ 09:20 UTC
Wind
  • 100° at 9 KTS
Visibility
10,000+ meters
Flight Rules
VFR
Cloud Levels
  • Broken at 36,000' AGL
Temperature
25°C / 77°F
Dewpoint
12°C / 54°F
Humidity
44%
Altimeter
30.21" Hg
Pressure
1022.92 hPa